createdAt,value
2019-04-25T00:00:15.136Z,15.63
2019-04-25T00:01:15.126Z,15.65
2019-04-25T00:02:15.127Z,15.69
2019-04-25T00:03:15.092Z,15.69
2019-04-25T00:04:15.082Z,15.80
2019-04-25T00:05:15.067Z,15.77
2019-04-25T00:06:15.054Z,15.85
2019-04-25T00:07:15.084Z,15.90
2019-04-25T00:08:15.050Z,15.93
2019-04-25T00:09:15.112Z,16.00
2019-04-25T00:10:15.018Z,16.00
2019-04-25T00:11:15.013Z,16.03
2019-04-25T00:12:15.010Z,16.03
2019-04-25T00:13:15.033Z,16.10
2019-04-25T00:14:14.975Z,16.24
2019-04-25T00:15:14.966Z,16.32
2019-04-25T00:16:14.993Z,16.29
2019-04-25T00:17:15.026Z,16.22
2019-04-25T00:18:14.996Z,16.28
2019-04-25T00:19:14.963Z,16.28
2019-04-25T00:20:14.942Z,16.28
2019-04-25T00:21:14.942Z,16.33
2019-04-25T00:22:14.889Z,16.21
2019-04-25T00:23:14.885Z,16.25
2019-04-25T00:24:14.946Z,16.26
2019-04-25T00:25:17.706Z,16.34
2019-04-25T00:26:14.847Z,16.39
2019-04-25T00:27:14.919Z,16.42
2019-04-25T00:28:14.882Z,16.40
2019-04-25T00:29:14.813Z,16.37
2019-04-25T00:30:14.816Z,16.36
2019-04-25T00:31:14.942Z,16.40
2019-04-25T00:32:14.798Z,16.36
2019-04-25T00:33:14.766Z,16.42
2019-04-25T00:34:14.777Z,16.36
2019-04-25T00:35:14.769Z,16.26
2019-04-25T00:36:14.788Z,16.29
2019-04-25T00:37:14.728Z,16.32
2019-04-25T00:38:14.767Z,16.24
2019-04-25T00:39:14.722Z,16.22
2019-04-25T00:40:14.755Z,16.28
2019-04-25T00:41:14.680Z,16.22
2019-04-25T00:42:14.661Z,16.22
2019-04-25T00:43:14.705Z,16.18
2019-04-25T00:44:14.671Z,16.16
2019-04-25T00:45:14.641Z,16.16
2019-04-25T00:46:14.631Z,16.06
2019-04-25T00:47:14.611Z,16.05
2019-04-25T00:48:14.606Z,16.05
2019-04-25T00:49:14.605Z,16.10
2019-04-25T00:50:14.681Z,16.06
2019-04-25T00:51:14.570Z,16.13
2019-04-25T00:52:14.565Z,16.09
2019-04-25T00:53:14.677Z,16.21
2019-04-25T00:54:14.566Z,16.13
2019-04-25T00:55:26.130Z,16.16
2019-04-25T00:56:15.523Z,16.16
2019-04-25T00:57:14.557Z,16.17
2019-04-25T00:58:14.492Z,16.21
2019-04-25T00:59:14.529Z,16.21
2019-04-25T01:00:14.485Z,16.18
2019-04-25T01:01:14.490Z,16.17
2019-04-25T01:02:14.449Z,16.18
2019-04-25T01:03:14.473Z,16.08
2019-04-25T01:04:14.445Z,16.13
2019-04-25T01:05:14.476Z,16.05
2019-04-25T01:06:14.405Z,16.05
2019-04-25T01:07:14.436Z,16.02
2019-04-25T01:08:14.411Z,16.03
2019-04-25T01:09:14.372Z,16.02
2019-04-25T01:10:14.452Z,15.98
2019-04-25T01:11:14.371Z,15.98
2019-04-25T01:12:14.400Z,15.98
2019-04-25T01:13:14.326Z,15.95
2019-04-25T01:14:14.364Z,15.91
2019-04-25T01:15:14.325Z,15.84
2019-04-25T01:16:14.344Z,15.80
2019-04-25T01:17:14.380Z,15.91
2019-04-25T01:18:14.293Z,15.98
2019-04-25T01:19:14.272Z,15.91
2019-04-25T01:20:14.268Z,15.98
2019-04-25T01:21:14.257Z,16.00
2019-04-25T01:22:14.491Z,16.02
2019-04-25T01:23:14.250Z,16.06
2019-04-25T01:24:15.706Z,16.02
2019-04-25T01:25:14.244Z,16.02
2019-04-25T01:26:14.266Z,16.02
2019-04-25T01:27:14.178Z,16.03
2019-04-25T01:28:14.168Z,16.05
2019-04-25T01:29:14.193Z,16.05
2019-04-25T01:30:14.198Z,16.02
2019-04-25T01:31:14.176Z,16.06
2019-04-25T01:32:14.136Z,16.05
2019-04-25T01:33:14.122Z,16.03
2019-04-25T01:34:14.294Z,16.00
2019-04-25T01:35:14.106Z,16.02
2019-04-25T01:36:14.118Z,16.05
2019-04-25T01:37:14.119Z,15.99
2019-04-25T01:38:14.058Z,16.05
2019-04-25T01:39:14.416Z,16.08
2019-04-25T01:40:14.152Z,16.13
2019-04-25T01:41:14.585Z,16.09
2019-04-25T01:42:14.012Z,16.10
2019-04-25T01:43:14.010Z,16.24
2019-04-25T01:44:14.350Z,16.13
2019-04-25T01:45:14.159Z,16.10
2019-04-25T01:46:14.888Z,16.21
2019-04-25T01:47:14.147Z,16.24
2019-04-25T01:48:13.946Z,16.14
2019-04-25T01:49:14.064Z,16.14
2019-04-25T01:50:13.925Z,16.13
2019-04-25T01:51:14.291Z,16.14
2019-04-25T01:52:13.920Z,16.09
2019-04-25T01:53:14.606Z,16.05
2019-04-25T01:54:14.173Z,16.10
2019-04-25T01:55:13.923Z,16.10
2019-04-25T01:56:13.884Z,16.02
2019-04-25T01:57:14.327Z,16.05
2019-04-25T01:58:13.851Z,16.05
2019-04-25T01:59:15.199Z,16.00
2019-04-25T02:00:14.055Z,16.08
2019-04-25T02:01:14.325Z,16.06
2019-04-25T02:02:14.086Z,16.00
2019-04-25T02:03:13.799Z,15.98
2019-04-25T02:04:13.803Z,15.98
2019-04-25T02:05:13.959Z,15.98
2019-04-25T02:06:13.796Z,15.98
2019-04-25T02:07:13.819Z,16.00
2019-04-25T02:08:14.292Z,15.93
2019-04-25T02:09:13.777Z,15.96
2019-04-25T02:10:13.735Z,15.98
2019-04-25T02:11:14.189Z,15.95
2019-04-25T02:12:15.468Z,16.00
2019-04-25T02:13:13.988Z,15.99
2019-04-25T02:14:13.803Z,16.06
2019-04-25T02:15:13.838Z,16.05
2019-04-25T02:16:14.192Z,16.02
2019-04-25T02:17:14.136Z,16.05
2019-04-25T02:18:13.767Z,16.02
2019-04-25T02:19:14.504Z,16.06
2019-04-25T02:20:14.071Z,16.10
2019-04-25T02:21:13.794Z,16.06
2019-04-25T02:22:14.531Z,16.09
2019-04-25T02:23:14.137Z,16.06
2019-04-25T02:24:13.762Z,16.05
2019-04-25T02:25:13.564Z,16.00
2019-04-25T02:26:18.216Z,16.03
2019-04-25T02:27:13.681Z,16.05
2019-04-25T02:28:13.957Z,16.00
2019-04-25T02:29:13.746Z,15.98
2019-04-25T02:30:15.485Z,15.90
2019-04-25T02:31:15.369Z,15.95
2019-04-25T02:32:14.602Z,16.00
2019-04-25T02:33:14.225Z,15.91
2019-04-25T02:34:15.308Z,15.85
2019-04-25T02:35:14.722Z,15.87
2019-04-25T02:36:15.084Z,15.80
2019-04-25T02:37:14.588Z,15.88
2019-04-25T02:38:16.533Z,15.87
2019-04-25T02:39:14.843Z,15.78
2019-04-25T02:40:14.178Z,15.85
2019-04-25T02:41:14.751Z,15.81
2019-04-25T02:42:14.328Z,15.81
2019-04-25T02:43:14.258Z,15.72
2019-04-25T02:44:14.570Z,15.77
2019-04-25T02:45:16.094Z,15.72
2019-04-25T02:46:15.135Z,15.87
2019-04-25T02:47:14.782Z,15.76
2019-04-25T02:48:14.202Z,15.88
2019-04-25T02:49:28.959Z,15.80
2019-04-25T02:50:15.066Z,15.80
2019-04-25T02:51:14.594Z,15.83
2019-04-25T02:52:17.656Z,15.76
2019-04-25T02:53:14.180Z,15.77
2019-04-25T02:54:13.981Z,15.87
2019-04-25T02:55:29.479Z,15.85
2019-04-25T02:56:30.482Z,15.81
2019-04-25T02:57:14.707Z,15.85
2019-04-25T02:58:14.150Z,15.81
2019-04-25T02:59:14.938Z,15.84
2019-04-25T03:00:14.958Z,15.80
2019-04-25T03:01:19.453Z,15.90
2019-04-25T03:02:15.359Z,15.85
2019-04-25T03:03:14.887Z,15.88
2019-04-25T03:04:14.420Z,15.91
2019-04-25T03:05:14.261Z,15.87
2019-04-25T03:06:15.021Z,15.80
2019-04-25T03:07:16.841Z,15.83
2019-04-25T03:08:14.275Z,15.85
2019-04-25T03:09:15.412Z,15.91
2019-04-25T03:10:14.861Z,15.84
2019-04-25T03:11:14.930Z,15.85
2019-04-25T03:12:26.778Z,15.85
2019-04-25T03:13:14.826Z,15.87
2019-04-25T03:14:14.707Z,15.88
2019-04-25T03:15:14.472Z,15.83
2019-04-25T03:16:14.018Z,15.88
2019-04-25T03:17:14.385Z,15.85
2019-04-25T03:18:15.266Z,15.87
2019-04-25T03:19:14.146Z,15.77
2019-04-25T03:20:14.829Z,15.85
2019-04-25T03:21:16.955Z,15.84
2019-04-25T03:22:15.073Z,15.85
2019-04-25T03:23:14.510Z,15.91
2019-04-25T03:24:15.925Z,15.85
2019-04-25T03:25:17.091Z,15.87
2019-04-25T03:26:13.530Z,15.84
2019-04-25T03:27:14.254Z,15.90
2019-04-25T03:28:13.537Z,15.85
2019-04-25T03:29:13.677Z,15.88
2019-04-25T03:30:16.635Z,15.81
2019-04-25T03:31:18.677Z,15.83
2019-04-25T03:32:19.344Z,15.98
2019-04-25T03:33:19.109Z,15.93
2019-04-25T03:34:19.267Z,15.85
2019-04-25T03:35:14.512Z,15.95
2019-04-25T03:36:13.979Z,15.95
2019-04-25T03:37:13.758Z,15.96
2019-04-25T03:38:14.413Z,15.88
2019-04-25T03:39:14.836Z,15.90
2019-04-25T03:40:13.988Z,15.85
2019-04-25T03:41:14.644Z,15.96
2019-04-25T03:42:14.098Z,15.90
2019-04-25T03:43:14.633Z,15.98
2019-04-25T03:44:13.955Z,15.88
2019-04-25T03:45:14.016Z,16.00
2019-04-25T03:46:14.212Z,15.98
2019-04-25T03:47:13.567Z,15.98
2019-04-25T03:48:13.945Z,15.95
2019-04-25T03:49:13.949Z,16.02
2019-04-25T03:50:13.974Z,16.00
2019-04-25T03:51:15.381Z,15.95
2019-04-25T03:52:14.152Z,15.95
2019-04-25T03:53:13.909Z,15.83
2019-04-25T03:54:14.116Z,15.93
2019-04-25T03:55:14.287Z,15.87
2019-04-25T03:56:14.479Z,15.81
2019-04-25T03:57:14.335Z,15.85
2019-04-25T03:58:13.107Z,15.83
2019-04-25T03:59:14.694Z,15.88
2019-04-25T04:00:14.354Z,15.88
2019-04-25T04:01:13.822Z,15.87
2019-04-25T04:02:13.525Z,15.80
2019-04-25T04:03:14.237Z,15.83
2019-04-25T04:04:15.767Z,15.78
2019-04-25T04:05:13.926Z,15.76
2019-04-25T04:06:14.220Z,15.77
2019-04-25T04:07:14.317Z,15.77
2019-04-25T04:08:12.490Z,15.70
2019-04-25T04:09:13.930Z,15.69
2019-04-25T04:10:14.219Z,15.59
2019-04-25T04:11:14.080Z,15.58
2019-04-25T04:12:12.439Z,15.51
2019-04-25T04:13:14.198Z,15.56
2019-04-25T04:14:14.409Z,15.51
2019-04-25T04:15:14.389Z,15.36
2019-04-25T04:16:14.121Z,15.35
2019-04-25T04:17:14.438Z,15.35
2019-04-25T04:18:14.448Z,15.33
2019-04-25T04:19:13.130Z,15.22
2019-04-25T04:20:14.501Z,15.30
2019-04-25T04:21:13.575Z,15.26
2019-04-25T04:22:13.690Z,15.15
2019-04-25T04:23:13.489Z,15.12
2019-04-25T04:24:13.836Z,15.14
2019-04-25T04:25:13.650Z,15.15
2019-04-25T04:26:13.666Z,15.04
2019-04-25T04:27:12.240Z,15.08
2019-04-25T04:28:13.791Z,15.10
2019-04-25T04:29:13.802Z,15.07
2019-04-25T04:30:12.268Z,14.96
2019-04-25T04:31:12.598Z,15.08
2019-04-25T04:32:12.578Z,14.92
2019-04-25T04:33:23.089Z,14.90
2019-04-25T04:34:14.674Z,14.89
2019-04-25T04:35:14.621Z,14.87
2019-04-25T04:36:14.470Z,14.92
2019-04-25T04:37:13.951Z,14.70
2019-04-25T04:38:12.134Z,14.78
2019-04-25T04:39:13.869Z,14.78
2019-04-25T04:40:12.124Z,14.70
2019-04-25T04:41:12.096Z,14.73
2019-04-25T04:42:13.702Z,14.64
2019-04-25T04:43:12.145Z,14.64
2019-04-25T04:44:12.049Z,14.63
2019-04-25T04:45:13.636Z,14.64
2019-04-25T04:46:13.620Z,14.59
2019-04-25T04:47:13.657Z,14.56
2019-04-25T04:48:14.106Z,14.58
2019-04-25T04:49:12.779Z,14.56
2019-04-25T04:50:14.162Z,14.55
2019-04-25T04:51:14.208Z,14.46
2019-04-25T04:52:12.908Z,14.48
2019-04-25T04:53:12.820Z,14.55
2019-04-25T04:54:13.514Z,14.41
2019-04-25T04:55:14.626Z,14.40
2019-04-25T04:56:11.922Z,14.44
2019-04-25T04:57:26.117Z,14.40
2019-04-25T04:58:14.605Z,14.40
2019-04-25T04:59:12.861Z,14.36
2019-04-25T05:00:14.153Z,14.31
2019-04-25T05:01:13.040Z,14.28
2019-04-25T05:02:14.618Z,14.26
2019-04-25T05:03:13.023Z,14.30
2019-04-25T05:04:12.649Z,14.34
2019-04-25T05:05:14.240Z,14.27
2019-04-25T05:06:11.829Z,14.26
2019-04-25T05:07:11.799Z,14.22
2019-04-25T05:08:12.974Z,14.26
2019-04-25T05:09:12.472Z,14.26
2019-04-25T05:10:14.493Z,14.28
2019-04-25T05:11:12.944Z,14.28
2019-04-25T05:12:11.747Z,14.27
2019-04-25T05:13:12.157Z,14.12
2019-04-25T05:14:11.849Z,14.19
2019-04-25T05:15:12.465Z,14.19
2019-04-25T05:16:12.558Z,14.22
2019-04-25T05:17:12.224Z,14.23
2019-04-25T05:18:12.721Z,14.27
2019-04-25T05:19:12.893Z,14.28
2019-04-25T05:20:11.997Z,14.26
2019-04-25T05:21:11.874Z,14.30
2019-04-25T05:22:13.002Z,14.30
2019-04-25T05:23:11.971Z,14.36
2019-04-25T05:24:12.838Z,14.34
2019-04-25T05:25:13.440Z,14.46
2019-04-25T05:26:12.190Z,14.53
2019-04-25T05:27:12.775Z,14.55
2019-04-25T05:28:13.004Z,14.59
2019-04-25T05:29:11.588Z,14.58
2019-04-25T05:30:11.578Z,14.64
2019-04-25T05:31:14.115Z,14.59
2019-04-25T05:32:11.546Z,14.77
2019-04-25T05:33:11.526Z,14.74
2019-04-25T05:34:11.515Z,14.67
2019-04-25T05:35:13.201Z,14.74
2019-04-25T05:36:11.508Z,14.78
2019-04-25T05:37:11.474Z,15.15
2019-04-25T05:38:13.222Z,15.78
2019-04-25T05:39:11.457Z,16.59
2019-04-25T05:40:11.494Z,17.19
2019-04-25T05:41:11.506Z,17.62
2019-04-25T05:42:11.424Z,17.63
2019-04-25T05:43:11.501Z,17.43
2019-04-25T05:44:11.417Z,17.27
2019-04-25T05:45:11.394Z,17.19
2019-04-25T05:46:13.177Z,17.04
2019-04-25T05:47:11.366Z,16.88
2019-04-25T05:48:11.408Z,16.80
2019-04-25T05:49:11.346Z,16.79
2019-04-25T05:50:11.422Z,17.45
2019-04-25T05:51:11.340Z,18.02
2019-04-25T05:52:11.374Z,17.97
2019-04-25T05:53:11.310Z,18.33
2019-04-25T05:54:11.346Z,18.89
2019-04-25T05:55:11.288Z,19.47
2019-04-25T05:56:11.307Z,19.96
2019-04-25T05:57:11.267Z,20.37
2019-04-25T05:58:11.265Z,20.98
2019-04-25T05:59:11.315Z,21.47
2019-04-25T06:00:11.235Z,21.90
2019-04-25T06:01:11.246Z,22.33
2019-04-25T06:02:11.275Z,22.70
2019-04-25T06:03:11.240Z,23.10
2019-04-25T06:04:11.186Z,23.37
2019-04-25T06:05:11.221Z,23.63
2019-04-25T06:06:11.173Z,24.00
2019-04-25T06:07:11.168Z,24.41
2019-04-25T06:08:11.141Z,24.78
2019-04-25T06:09:11.140Z,25.09
2019-04-25T06:10:11.157Z,25.46
2019-04-25T06:11:11.129Z,25.78
2019-04-25T06:12:11.124Z,26.24
2019-04-25T06:13:11.104Z,26.75
2019-04-25T06:14:11.079Z,26.98
2019-04-25T06:15:11.067Z,27.31
2019-04-25T06:16:11.061Z,27.66
2019-04-25T06:17:11.066Z,28.03
2019-04-25T06:18:11.050Z,28.31
2019-04-25T06:19:13.998Z,28.68
2019-04-25T06:20:13.459Z,28.89
2019-04-25T06:21:11.007Z,29.19
2019-04-25T06:22:11.080Z,29.49
2019-04-25T06:23:10.995Z,29.83
2019-04-25T06:24:10.984Z,29.98
2019-04-25T06:25:13.808Z,30.22
2019-04-25T06:26:23.048Z,30.14
2019-04-25T06:27:11.978Z,30.20
2019-04-25T06:28:10.939Z,30.28
2019-04-25T06:29:10.925Z,30.64
2019-04-25T06:30:10.911Z,30.68
2019-04-25T06:31:10.955Z,31.14
2019-04-25T06:32:10.895Z,31.26
2019-04-25T06:33:10.947Z,30.78
2019-04-25T06:34:10.875Z,30.68
2019-04-25T06:35:10.857Z,30.17
2019-04-25T06:36:10.849Z,29.81
2019-04-25T06:37:10.846Z,29.24
2019-04-25T06:38:10.847Z,28.72
2019-04-25T06:39:10.819Z,28.34
2019-04-25T06:40:10.881Z,27.98
2019-04-25T06:41:10.797Z,27.70
2019-04-25T06:42:10.789Z,28.05
2019-04-25T06:43:10.805Z,28.24
2019-04-25T06:44:10.769Z,27.87
2019-04-25T06:45:10.815Z,28.32
2019-04-25T06:46:10.743Z,28.84
2019-04-25T06:47:10.792Z,29.36
2019-04-25T06:48:10.809Z,29.50
2019-04-25T06:49:10.718Z,29.34
2019-04-25T06:50:10.702Z,28.75
2019-04-25T06:51:10.749Z,28.84
2019-04-25T06:52:10.695Z,28.50
2019-04-25T06:53:10.727Z,28.42
2019-04-25T06:54:10.674Z,28.43
2019-04-25T06:55:10.648Z,28.54
2019-04-25T06:56:10.658Z,28.98
2019-04-25T06:57:10.648Z,29.40
2019-04-25T06:58:13.983Z,29.99
2019-04-25T06:59:10.653Z,30.33
2019-04-25T07:00:10.611Z,30.26
2019-04-25T07:01:10.601Z,30.26
2019-04-25T07:02:10.575Z,30.62
2019-04-25T07:03:10.646Z,31.07
2019-04-25T07:04:10.566Z,31.23
2019-04-25T07:05:10.547Z,31.34
2019-04-25T07:06:10.534Z,31.59
2019-04-25T07:07:13.124Z,31.86
2019-04-25T07:08:10.521Z,32.16
2019-04-25T07:09:10.526Z,32.38
2019-04-25T07:10:10.496Z,32.45
2019-04-25T07:11:10.482Z,32.76
2019-04-25T07:12:10.568Z,33.04
2019-04-25T07:13:10.462Z,32.41
2019-04-25T07:14:10.489Z,32.39
2019-04-25T07:15:10.600Z,32.73
2019-04-25T07:16:10.440Z,33.03
2019-04-25T07:17:10.424Z,33.39
2019-04-25T07:18:10.411Z,33.78
2019-04-25T07:19:10.492Z,33.98
2019-04-25T07:20:10.418Z,34.35
2019-04-25T07:21:10.382Z,34.56
2019-04-25T07:22:10.378Z,34.87
2019-04-25T07:23:10.360Z,35.12
2019-04-25T07:24:10.440Z,35.31
2019-04-25T07:25:10.404Z,35.47
2019-04-25T07:26:10.402Z,35.68
2019-04-25T07:27:10.378Z,36.00
2019-04-25T07:28:22.865Z,36.04
2019-04-25T07:29:11.345Z,36.00
2019-04-25T07:30:10.310Z,36.14
2019-04-25T07:31:10.282Z,35.97
2019-04-25T07:32:10.318Z,36.02
2019-04-25T07:33:10.365Z,36.14
2019-04-25T07:34:10.247Z,36.15
2019-04-25T07:35:10.256Z,36.30
2019-04-25T07:36:10.242Z,36.33
2019-04-25T07:37:10.220Z,36.27
2019-04-25T07:38:10.262Z,36.56
2019-04-25T07:39:10.797Z,36.60
2019-04-25T07:40:10.215Z,36.82
2019-04-25T07:41:10.188Z,36.83
2019-04-25T07:42:10.225Z,37.03
2019-04-25T07:43:10.169Z,37.30
2019-04-25T07:44:10.147Z,37.35
2019-04-25T07:45:10.195Z,37.25
2019-04-25T07:46:10.129Z,37.19
2019-04-25T07:47:10.129Z,37.17
2019-04-25T07:48:10.103Z,36.94
2019-04-25T07:49:10.093Z,37.01
2019-04-25T07:50:10.191Z,36.69
2019-04-25T07:51:10.080Z,36.59
2019-04-25T07:52:11.559Z,36.67
2019-04-25T07:53:10.095Z,36.76
2019-04-25T07:54:10.061Z,36.94
2019-04-25T07:55:10.062Z,36.86
2019-04-25T07:56:10.028Z,36.94
2019-04-25T07:57:10.343Z,36.63
2019-04-25T07:58:10.011Z,36.17
2019-04-25T07:59:10.029Z,35.57
2019-04-25T08:00:10.027Z,35.42
2019-04-25T08:01:09.983Z,35.50
2019-04-25T08:02:09.969Z,35.81
2019-04-25T08:03:10.073Z,35.95
2019-04-25T08:04:09.968Z,36.30
2019-04-25T08:05:10.042Z,36.78
2019-04-25T08:06:09.935Z,36.81
2019-04-25T08:07:09.917Z,36.71
2019-04-25T08:08:09.967Z,36.70
2019-04-25T08:09:09.901Z,36.81
2019-04-25T08:10:09.893Z,36.85
2019-04-25T08:11:09.964Z,37.15
2019-04-25T08:12:09.915Z,37.15
2019-04-25T08:13:09.860Z,36.78
2019-04-25T08:14:09.857Z,36.63
2019-04-25T08:15:09.884Z,36.59
2019-04-25T08:16:09.857Z,36.78
2019-04-25T08:17:09.820Z,36.74
2019-04-25T08:18:09.816Z,36.70
2019-04-25T08:19:09.798Z,36.51
2019-04-25T08:20:09.809Z,35.81
2019-04-25T08:21:09.914Z,35.20
2019-04-25T08:22:09.779Z,34.60
2019-04-25T08:23:09.764Z,34.10
2019-04-25T08:24:09.752Z,33.45
2019-04-25T08:25:09.742Z,32.97
2019-04-25T08:26:09.878Z,32.57
2019-04-25T08:27:09.741Z,32.20
2019-04-25T08:28:09.738Z,31.84
2019-04-25T08:29:09.704Z,31.52
2019-04-25T08:30:09.699Z,30.96
2019-04-25T08:31:09.727Z,30.45
2019-04-25T08:32:09.691Z,30.07
2019-04-25T08:33:09.703Z,29.74
2019-04-25T08:34:09.654Z,29.43
2019-04-25T08:35:09.650Z,29.21
2019-04-25T08:36:09.646Z,28.89
2019-04-25T08:37:18.153Z,28.66
2019-04-25T08:38:10.637Z,28.53
2019-04-25T08:39:09.608Z,28.37
2019-04-25T08:40:09.586Z,28.19
2019-04-25T08:41:09.612Z,27.91
2019-04-25T08:42:09.572Z,27.75
2019-04-25T08:43:09.552Z,27.53
2019-04-25T08:44:09.603Z,27.37
2019-04-25T08:45:09.538Z,27.25
2019-04-25T08:46:09.530Z,27.03
2019-04-25T08:47:09.608Z,26.86
2019-04-25T08:48:09.498Z,26.48
2019-04-25T08:49:09.626Z,26.31
2019-04-25T08:50:09.488Z,26.05
2019-04-25T08:51:09.480Z,25.78
2019-04-25T08:52:09.531Z,25.64
2019-04-25T08:53:09.534Z,25.61
2019-04-25T08:54:09.440Z,25.52
2019-04-25T08:55:09.430Z,25.41
2019-04-25T08:56:09.491Z,25.28
2019-04-25T08:57:09.429Z,25.21
2019-04-25T08:58:09.448Z,25.27
2019-04-25T08:59:09.390Z,25.31
2019-04-25T09:00:09.410Z,25.43
2019-04-25T09:01:09.375Z,25.43
2019-04-25T09:02:09.516Z,25.28
2019-04-25T09:03:09.410Z,25.21
2019-04-25T09:04:09.413Z,25.08
2019-04-25T09:05:09.323Z,24.96
2019-04-25T09:06:09.328Z,24.84
2019-04-25T09:07:09.521Z,24.70
2019-04-25T09:08:09.363Z,24.63
2019-04-25T09:09:09.292Z,24.36
2019-04-25T09:10:09.277Z,24.31
2019-04-25T09:11:09.409Z,24.22
2019-04-25T09:12:09.305Z,24.16
2019-04-25T09:13:09.239Z,24.04
2019-04-25T09:14:09.229Z,24.03
2019-04-25T09:15:09.224Z,24.10
2019-04-25T09:16:09.211Z,24.01
2019-04-25T09:17:09.325Z,24.03
2019-04-25T09:18:09.197Z,23.98
2019-04-25T09:19:09.181Z,24.06
2019-04-25T09:20:09.181Z,24.18
2019-04-25T09:21:09.161Z,24.26
2019-04-25T09:22:09.151Z,24.26
2019-04-25T09:23:09.146Z,24.15
2019-04-25T09:24:09.153Z,24.04
2019-04-25T09:25:09.141Z,24.00
2019-04-25T09:26:09.115Z,23.96
2019-04-25T09:27:09.095Z,23.92
2019-04-25T09:28:09.099Z,23.91
2019-04-25T09:29:18.878Z,23.91
2019-04-25T09:30:10.062Z,23.81
2019-04-25T09:31:09.049Z,23.76
2019-04-25T09:32:09.060Z,23.76
2019-04-25T09:33:09.053Z,23.78
2019-04-25T09:34:09.030Z,23.79
2019-04-25T09:35:09.012Z,23.79
2019-04-25T09:36:08.996Z,23.76
2019-04-25T09:37:08.984Z,23.88
2019-04-25T09:38:09.010Z,23.98
2019-04-25T09:39:08.969Z,24.18
2019-04-25T09:40:08.963Z,24.19
2019-04-25T09:41:09.024Z,24.18
2019-04-25T09:42:08.959Z,24.23
2019-04-25T09:43:08.938Z,24.36
2019-04-25T09:44:08.920Z,24.36
2019-04-25T09:45:08.911Z,24.31
2019-04-25T09:46:08.889Z,24.33
2019-04-25T09:47:08.893Z,24.29
2019-04-25T09:48:08.880Z,24.36
2019-04-25T09:49:08.857Z,24.43
2019-04-25T09:50:08.853Z,24.45
2019-04-25T09:51:08.843Z,24.47
2019-04-25T09:52:08.871Z,24.52
2019-04-25T09:53:15.493Z,24.70
2019-04-25T09:54:09.812Z,24.82
2019-04-25T09:55:08.796Z,24.94
2019-04-25T09:56:08.792Z,24.93
2019-04-25T09:57:08.782Z,24.97
2019-04-25T09:58:08.808Z,25.06
2019-04-25T09:59:08.763Z,25.11
2019-04-25T10:00:08.744Z,25.14
2019-04-25T10:01:08.730Z,25.27
2019-04-25T10:02:08.746Z,25.30
2019-04-25T10:03:08.745Z,25.46
2019-04-25T10:04:08.708Z,25.45
2019-04-25T10:05:08.730Z,25.38
2019-04-25T10:06:08.681Z,25.40
2019-04-25T10:07:08.668Z,25.27
2019-04-25T10:08:08.658Z,25.16
2019-04-25T10:09:08.660Z,25.12
2019-04-25T10:10:08.659Z,25.08
2019-04-25T10:11:08.830Z,25.01
2019-04-25T10:12:08.622Z,25.04
2019-04-25T10:13:08.646Z,25.04
2019-04-25T10:14:08.638Z,24.93
2019-04-25T10:15:08.592Z,24.93
2019-04-25T10:16:08.583Z,25.08
2019-04-25T10:17:08.580Z,25.04
2019-04-25T10:18:08.573Z,25.43
2019-04-25T10:19:08.559Z,25.73
2019-04-25T10:20:08.547Z,25.98
2019-04-25T10:21:08.576Z,26.10
2019-04-25T10:22:08.530Z,26.21
2019-04-25T10:23:08.510Z,26.38
2019-04-25T10:24:08.548Z,26.34
2019-04-25T10:25:08.512Z,26.41
2019-04-25T10:26:08.474Z,26.48
2019-04-25T10:27:08.464Z,26.83
2019-04-25T10:28:08.464Z,26.94
2019-04-25T10:29:08.455Z,27.12
2019-04-25T10:30:16.775Z,27.08
2019-04-25T10:31:09.439Z,27.04
2019-04-25T10:32:08.411Z,27.20
2019-04-25T10:33:08.403Z,27.52
2019-04-25T10:34:08.401Z,27.49
2019-04-25T10:35:08.381Z,27.68
2019-04-25T10:36:08.367Z,27.78
2019-04-25T10:37:08.391Z,27.78
2019-04-25T10:38:08.345Z,27.66
2019-04-25T10:39:10.858Z,27.70
2019-04-25T10:40:08.328Z,27.63
2019-04-25T10:41:08.316Z,27.61
2019-04-25T10:42:08.300Z,27.57
2019-04-25T10:43:08.306Z,27.49
2019-04-25T10:44:08.279Z,27.49
2019-04-25T10:45:20.412Z,27.47
2019-04-25T10:46:09.257Z,27.44
2019-04-25T10:47:08.249Z,27.42
2019-04-25T10:48:08.235Z,27.35
2019-04-25T10:49:08.258Z,27.22
2019-04-25T10:50:08.236Z,27.30
2019-04-25T10:51:08.225Z,27.22
2019-04-25T10:52:08.200Z,27.35
2019-04-25T10:53:08.187Z,27.49
2019-04-25T10:54:08.180Z,27.76
2019-04-25T10:55:08.187Z,27.98
2019-04-25T10:56:08.188Z,28.13
2019-04-25T10:57:08.154Z,28.17
2019-04-25T10:58:08.131Z,28.50
2019-04-25T10:59:08.119Z,28.96
2019-04-25T11:00:09.626Z,29.36
2019-04-25T11:01:08.103Z,30.28
2019-04-25T11:02:08.121Z,30.99
2019-04-25T11:03:08.105Z,31.76
2019-04-25T11:04:08.117Z,32.69
2019-04-25T11:05:08.077Z,33.54
2019-04-25T11:06:08.065Z,33.97
2019-04-25T11:07:08.039Z,33.54
2019-04-25T11:08:08.035Z,33.58
2019-04-25T11:09:08.021Z,34.18
2019-04-25T11:10:08.057Z,34.34
2019-04-25T11:11:08.005Z,35.01
2019-04-25T11:12:07.996Z,35.51
2019-04-25T11:13:07.990Z,36.51
2019-04-25T11:14:07.982Z,37.15
2019-04-25T11:15:07.980Z,37.54
2019-04-25T11:16:07.980Z,38.25
2019-04-25T11:17:07.944Z,38.88
2019-04-25T11:18:07.940Z,39.31
2019-04-25T11:19:07.938Z,39.86
2019-04-25T11:20:07.934Z,40.26
2019-04-25T11:21:07.913Z,40.52
2019-04-25T11:22:07.925Z,40.64
2019-04-25T11:23:07.891Z,41.06
2019-04-25T11:24:07.993Z,41.05
2019-04-25T11:25:07.911Z,41.08
2019-04-25T11:26:07.864Z,41.28
2019-04-25T11:27:07.876Z,41.65
2019-04-25T11:28:07.844Z,41.45
2019-04-25T11:29:07.930Z,41.82
2019-04-25T11:30:11.143Z,41.99
2019-04-25T11:31:07.816Z,42.15
2019-04-25T11:32:07.810Z,42.28
2019-04-25T11:33:07.806Z,42.54
2019-04-25T11:34:07.800Z,43.05
2019-04-25T11:35:07.822Z,43.12
2019-04-25T11:36:07.864Z,43.17
2019-04-25T11:37:07.768Z,42.30
2019-04-25T11:38:08.172Z,42.37
2019-04-25T11:39:07.756Z,42.11
2019-04-25T11:40:07.811Z,41.33
2019-04-25T11:41:07.752Z,41.43
2019-04-25T11:42:07.721Z,41.28
2019-04-25T11:43:07.705Z,41.49
2019-04-25T11:44:07.745Z,41.68
2019-04-25T11:45:07.707Z,42.00
2019-04-25T11:46:07.689Z,42.04
2019-04-25T11:47:08.743Z,42.19
2019-04-25T11:48:07.662Z,42.28
2019-04-25T11:49:07.796Z,42.49
2019-04-25T11:50:07.656Z,42.52
2019-04-25T11:51:07.634Z,42.37
2019-04-25T11:52:07.622Z,42.62
2019-04-25T11:53:07.608Z,42.95
2019-04-25T11:54:07.635Z,43.40
2019-04-25T11:55:07.612Z,43.69
2019-04-25T11:56:07.585Z,43.57
2019-04-25T11:57:07.580Z,43.78
2019-04-25T11:58:07.566Z,44.01
2019-04-25T11:59:07.556Z,43.79
2019-04-25T12:00:07.640Z,43.08
2019-04-25T12:01:07.530Z,41.93
2019-04-25T12:02:07.538Z,41.77
2019-04-25T12:03:07.537Z,41.49
2019-04-25T12:04:07.511Z,41.27
2019-04-25T12:05:07.589Z,41.46
2019-04-25T12:06:07.502Z,41.88
2019-04-25T12:07:08.586Z,42.22
2019-04-25T12:08:07.496Z,42.74
2019-04-25T12:09:07.463Z,43.13
2019-04-25T12:10:07.472Z,43.62
2019-04-25T12:11:07.444Z,43.78
2019-04-25T12:12:07.449Z,43.73
2019-04-25T12:13:07.422Z,44.04
2019-04-25T12:14:07.414Z,43.94
2019-04-25T12:15:07.419Z,43.70
2019-04-25T12:16:07.446Z,43.03
2019-04-25T12:17:07.389Z,42.95
2019-04-25T12:18:07.367Z,42.98
2019-04-25T12:19:07.377Z,42.98
2019-04-25T12:20:07.375Z,43.20
2019-04-25T12:21:07.352Z,43.35
2019-04-25T12:22:07.407Z,43.20
2019-04-25T12:23:10.417Z,43.12
2019-04-25T12:24:07.319Z,43.02
2019-04-25T12:25:07.333Z,43.05
2019-04-25T12:26:07.320Z,42.88
2019-04-25T12:27:07.332Z,43.32
2019-04-25T12:28:07.300Z,43.57
2019-04-25T12:29:07.271Z,43.64
2019-04-25T12:30:07.305Z,43.69
2019-04-25T12:31:07.252Z,43.79
2019-04-25T12:32:07.240Z,43.86
2019-04-25T12:33:18.258Z,44.04
2019-04-25T12:34:08.230Z,43.59
2019-04-25T12:35:07.231Z,43.44
2019-04-25T12:36:07.206Z,43.10
2019-04-25T12:37:07.189Z,42.94
2019-04-25T12:38:07.223Z,42.83
2019-04-25T12:39:07.250Z,42.50
2019-04-25T12:40:07.204Z,42.46
2019-04-25T12:41:07.159Z,42.46
2019-04-25T12:42:07.141Z,42.33
2019-04-25T12:43:07.141Z,42.03
2019-04-25T12:44:08.817Z,41.50
2019-04-25T12:45:07.140Z,41.31
2019-04-25T12:46:07.139Z,41.25
2019-04-25T12:47:07.101Z,41.23
2019-04-25T12:48:07.099Z,41.15
2019-04-25T12:49:07.074Z,41.17
2019-04-25T12:50:07.077Z,40.90
2019-04-25T12:51:07.118Z,40.65
2019-04-25T12:52:07.048Z,40.38